createdAt,value
2019-04-01T00:01:20.230Z,13.90
2019-04-01T00:03:49.418Z,15.50
2019-04-01T00:06:18.543Z,13.47
2019-04-01T00:08:47.908Z,13.40
2019-04-01T00:11:17.290Z,14.80
2019-04-01T00:13:46.398Z,15.33
2019-04-01T00:16:15.522Z,13.93
2019-04-01T00:18:44.625Z,15.57
2019-04-01T00:21:14.058Z,14.90
2019-04-01T00:23:43.318Z,13.90
2019-04-01T00:26:12.510Z,16.83
2019-04-01T00:28:41.622Z,14.63
2019-04-01T00:31:10.984Z,14.33
2019-04-01T00:33:40.110Z,13.63
2019-04-01T00:36:09.518Z,14.23
2019-04-01T00:38:38.613Z,14.43
2019-04-01T00:41:07.725Z,15.10
2019-04-01T00:44:01.762Z,14.00
2019-04-01T00:46:33.414Z,13.50
2019-04-01T00:49:02.764Z,15.70
2019-04-01T00:51:32.183Z,14.53
2019-04-01T00:54:01.285Z,14.50
2019-04-01T00:56:31.220Z,13.70
2019-04-01T00:59:00.298Z,14.07
2019-04-01T01:01:29.482Z,15.43
2019-04-01T01:03:58.585Z,14.63
2019-04-01T01:06:27.707Z,15.23
2019-04-01T01:08:56.778Z,15.13
2019-04-01T01:11:31.758Z,15.37
2019-04-01T01:14:01.134Z,16.07
2019-04-01T01:16:30.287Z,14.37
2019-04-01T01:18:59.625Z,15.47
2019-04-01T01:21:28.834Z,15.20
2019-04-01T01:23:57.913Z,14.60
2019-04-01T01:26:27.026Z,14.80
2019-04-01T01:28:56.135Z,16.50
2019-04-01T01:31:25.318Z,14.60
2019-04-01T01:33:54.498Z,15.40
2019-04-01T01:36:23.990Z,15.10
2019-04-01T01:38:53.164Z,15.47
2019-04-01T01:41:22.354Z,15.73
2019-04-01T01:44:10.646Z,15.33
2019-04-01T01:46:58.988Z,15.33
2019-04-01T01:49:46.997Z,15.70
2019-04-01T01:52:35.330Z,13.53
2019-04-01T01:55:23.835Z,13.57
2019-04-01T01:57:53.292Z,13.43
2019-04-01T02:00:42.203Z,14.83
2019-04-01T02:03:30.526Z,14.33
2019-04-01T02:06:18.724Z,14.40
2019-04-01T02:09:07.183Z,14.43
2019-04-01T02:11:55.702Z,13.93
2019-04-01T02:14:44.003Z,13.17
2019-04-01T02:17:32.270Z,16.00
2019-04-01T02:20:20.776Z,13.87
2019-04-01T02:23:09.131Z,12.43
2019-04-01T02:25:57.390Z,13.40
2019-04-01T02:28:27.042Z,14.97
2019-04-01T02:31:07.542Z,12.30
2019-04-01T02:33:36.819Z,12.77
2019-04-01T02:36:25.114Z,13.40
2019-04-01T02:38:54.307Z,13.37
2019-04-01T02:41:42.607Z,11.50
2019-04-01T02:44:31.223Z,12.00
2019-04-01T02:47:19.892Z,13.63
2019-04-01T02:49:49.755Z,12.70
2019-04-01T02:52:38.394Z,12.17
2019-04-01T02:55:27.252Z,12.70
2019-04-01T02:58:15.838Z,12.00
2019-04-01T03:01:04.167Z,12.00
2019-04-01T03:03:52.428Z,11.03
2019-04-01T03:06:40.699Z,12.40
2019-04-01T03:09:29.013Z,11.90
2019-04-01T03:12:17.696Z,10.67
2019-04-01T03:15:06.068Z,11.90
2019-04-01T03:17:54.399Z,11.60
2019-04-01T03:20:42.759Z,11.13
2019-04-01T03:23:12.259Z,10.73
2019-04-01T03:26:00.492Z,10.70
2019-04-01T03:28:48.753Z,10.53
2019-04-01T03:31:18.012Z,9.63
2019-04-01T03:34:06.355Z,11.23
2019-04-01T03:36:35.784Z,9.57
2019-04-01T03:39:24.021Z,10.30
2019-04-01T03:42:12.313Z,11.33
2019-04-01T03:45:00.932Z,10.07
2019-04-01T03:47:49.260Z,9.50
2019-04-01T03:50:37.547Z,10.13
2019-04-01T03:53:06.983Z,10.53
2019-04-01T03:55:36.204Z,10.40
2019-04-01T03:58:24.450Z,10.17
2019-04-01T04:01:12.778Z,10.00
2019-04-01T04:04:01.200Z,10.80
2019-04-01T04:06:49.396Z,9.30
2019-04-01T04:09:18.578Z,10.20
2019-04-01T04:11:48.478Z,9.70
2019-04-01T04:14:36.814Z,9.03
2019-04-01T04:17:25.055Z,9.13
2019-04-01T04:20:06.370Z,11.10
2019-04-01T04:22:47.753Z,9.53
2019-04-01T04:25:28.919Z,9.20
2019-04-01T04:30:52.856Z,9.07
2019-04-01T04:33:34.247Z,8.80
2019-04-01T04:38:57.665Z,9.07
2019-04-01T04:41:38.647Z,9.53
2019-04-01T04:44:19.555Z,9.27
2019-04-01T04:47:00.907Z,9.30
2019-04-01T04:49:42.150Z,8.40
2019-04-01T04:52:22.936Z,7.90
2019-04-01T04:55:03.880Z,8.70
2019-04-01T04:57:45.112Z,8.13
2019-04-01T05:00:26.041Z,8.33
2019-04-01T05:05:50.418Z,9.23
2019-04-01T05:08:41.911Z,8.57
2019-04-01T05:11:30.563Z,8.33
2019-04-01T05:14:19.027Z,8.73
2019-04-01T05:17:07.590Z,8.30
2019-04-01T05:19:49.190Z,8.83
2019-04-01T05:25:12.755Z,9.03
2019-04-01T05:27:53.268Z,9.50
2019-04-01T05:30:34.063Z,9.67
2019-04-01T05:38:56.404Z,9.33
2019-04-01T05:41:37.282Z,7.53
2019-04-01T05:46:49.042Z,8.70
2019-04-01T05:49:37.326Z,8.37
2019-04-01T05:52:25.826Z,9.97
2019-04-01T05:55:14.274Z,9.63
2019-04-01T05:58:02.511Z,8.83
2019-04-01T06:01:09.880Z,8.43
2019-04-01T06:03:39.563Z,8.17
2019-04-01T06:06:27.962Z,8.90
2019-04-01T06:09:16.278Z,8.00
2019-04-01T06:12:04.518Z,7.60
2019-04-01T06:14:53.103Z,8.40
2019-04-01T06:17:41.470Z,8.40
2019-04-01T06:20:22.886Z,7.73
2019-04-01T06:23:04.343Z,8.17
2019-04-01T06:25:45.204Z,8.97
2019-04-01T06:28:33.807Z,8.20
2019-04-01T06:31:22.122Z,8.70
2019-04-01T06:34:10.402Z,9.73
2019-04-01T06:36:58.716Z,8.20
2019-04-01T06:39:46.902Z,8.10
2019-04-01T06:42:16.098Z,8.13
2019-04-01T06:44:45.501Z,8.27
2019-04-01T06:47:34.046Z,8.80
2019-04-01T06:50:22.530Z,8.70
2019-04-01T06:53:11.045Z,16.00
2019-04-01T06:55:59.354Z,8.93
2019-04-01T06:58:47.830Z,15.33
2019-04-01T07:01:36.373Z,7.80
2019-04-01T07:04:24.847Z,8.80
2019-04-01T07:07:19.120Z,7.10
2019-04-01T07:10:03.206Z,7.53
2019-04-01T07:12:51.424Z,7.80
2019-04-01T07:15:39.617Z,7.90
2019-04-01T07:18:28.296Z,7.10
2019-04-01T07:21:09.276Z,7.40
2019-04-01T07:23:49.918Z,6.90
2019-04-01T07:26:30.582Z,5.80
2019-04-01T07:29:11.732Z,7.70
2019-04-01T07:31:53.123Z,6.87
2019-04-01T07:34:34.367Z,7.30
2019-04-01T07:37:14.748Z,7.23
2019-04-01T07:39:55.959Z,8.13
2019-04-01T07:42:37.324Z,6.90
2019-04-01T07:45:18.070Z,7.60
2019-04-01T07:47:58.458Z,6.33
2019-04-01T07:50:39.527Z,6.87
2019-04-01T07:53:21.195Z,6.50
2019-04-01T07:56:02.859Z,6.50
2019-04-01T07:58:43.916Z,9.50
2019-04-01T08:01:25.082Z,7.03
2019-04-01T08:04:06.090Z,6.87
2019-04-01T08:06:47.849Z,6.70
2019-04-01T08:09:28.697Z,6.80
2019-04-01T08:12:09.936Z,6.97
2019-04-01T08:14:50.764Z,7.30
2019-04-01T08:17:31.574Z,6.80
2019-04-01T08:20:12.762Z,7.00
2019-04-01T08:22:53.911Z,7.00
2019-04-01T08:25:35.079Z,7.63
2019-04-01T08:28:15.559Z,7.40
2019-04-01T08:30:56.315Z,7.73
2019-04-01T08:33:25.734Z,7.93
2019-04-01T08:36:14.019Z,7.70
2019-04-01T08:39:02.250Z,10.10
2019-04-01T08:41:50.711Z,12.67
2019-04-01T08:44:39.028Z,8.17
2019-04-01T08:47:27.246Z,8.13
2019-04-01T08:50:15.720Z,9.07
2019-04-01T08:53:24.659Z,8.30
2019-04-01T08:56:12.867Z,8.70
2019-04-01T08:59:01.095Z,8.67
2019-04-01T09:01:49.282Z,7.73
2019-04-01T09:04:38.007Z,8.17
2019-04-01T09:07:26.562Z,7.90
2019-04-01T09:10:14.767Z,8.43
2019-04-01T09:13:03.336Z,8.13
2019-04-01T09:15:44.613Z,9.13
2019-04-01T09:18:25.988Z,13.47
2019-04-01T09:21:07.363Z,9.37
2019-04-01T09:23:48.147Z,8.30
2019-04-01T09:26:28.885Z,9.27
2019-04-01T09:32:11.887Z,9.10
2019-04-01T09:34:52.427Z,9.00
2019-04-01T09:37:21.570Z,9.37
2019-04-01T09:40:09.882Z,8.57
2019-04-01T09:42:58.111Z,9.57
2019-04-01T09:45:46.663Z,9.20
2019-04-01T09:48:34.970Z,9.30
2019-04-01T09:51:23.507Z,9.43
2019-04-01T09:54:11.983Z,9.30
2019-04-01T09:57:00.547Z,10.67
2019-04-01T09:59:49.062Z,14.67
2019-04-01T10:02:37.547Z,10.50
2019-04-01T10:05:25.743Z,9.70
2019-04-01T10:08:21.207Z,9.70
2019-04-01T10:11:12.479Z,10.30
2019-04-01T10:13:59.439Z,10.13
2019-04-01T10:16:39.965Z,10.30
2019-04-01T10:19:21.210Z,10.60
2019-04-01T10:22:02.196Z,10.87
2019-04-01T10:24:42.886Z,12.97
2019-04-01T10:27:24.303Z,10.63
2019-04-01T10:29:53.517Z,12.03
2019-04-01T10:32:41.732Z,13.63
2019-04-01T10:35:29.954Z,11.70
2019-04-01T10:38:18.182Z,11.10
2019-04-01T10:41:06.402Z,11.10
2019-04-01T10:43:54.630Z,12.47
2019-04-01T10:46:42.906Z,13.13
2019-04-01T10:49:32.274Z,12.77
2019-04-01T10:52:21.189Z,11.83
2019-04-01T10:55:09.523Z,11.80
2019-04-01T10:57:57.811Z,14.43
2019-04-01T11:00:46.119Z,19.93
2019-04-01T11:03:34.725Z,13.97
2019-04-01T11:06:23.222Z,13.30
2019-04-01T11:09:11.678Z,12.87
2019-04-01T11:11:59.873Z,13.70
2019-04-01T11:14:48.099Z,13.17
2019-04-01T11:17:28.590Z,15.63
2019-04-01T11:20:09.398Z,16.60
2019-04-01T11:22:50.705Z,15.70
2019-04-01T11:25:31.778Z,13.77
2019-04-01T11:28:12.570Z,15.00
2019-04-01T11:30:53.444Z,14.77
2019-04-01T11:33:33.985Z,17.10
2019-04-01T11:36:14.524Z,16.30
2019-04-01T11:38:55.500Z,14.40
2019-04-01T11:41:36.799Z,15.30
2019-04-01T11:44:17.633Z,14.00
2019-04-01T11:46:58.500Z,15.07
2019-04-01T11:49:39.491Z,14.43
2019-04-01T11:52:20.305Z,14.10
2019-04-01T11:55:01.445Z,16.17
2019-04-01T11:57:42.818Z,16.87
2019-04-01T12:00:26.230Z,16.17
2019-04-01T12:03:06.490Z,15.73
2019-04-01T12:05:46.942Z,14.37
2019-04-01T12:08:27.449Z,14.70
2019-04-01T12:11:08.354Z,16.27
2019-04-01T12:13:37.550Z,14.97
2019-04-01T12:16:25.770Z,16.53
2019-04-01T12:19:14.024Z,13.93
2019-04-01T12:22:02.224Z,15.47
2019-04-01T12:24:50.528Z,14.20
2019-04-01T12:27:39.088Z,13.63
2019-04-01T12:30:08.735Z,14.57
2019-04-01T12:32:56.719Z,15.30
2019-04-01T12:35:44.955Z,14.67
2019-04-01T12:38:33.451Z,14.90
2019-04-01T12:41:21.759Z,15.13
2019-04-01T12:44:11.049Z,14.33
2019-04-01T12:46:59.922Z,12.70
2019-04-01T12:49:48.406Z,14.90
2019-04-01T12:52:36.627Z,15.03
2019-04-01T12:55:25.115Z,16.30
2019-04-01T12:58:13.323Z,15.70
2019-04-01T13:01:01.615Z,13.97
2019-04-01T13:03:50.157Z,14.83
2019-04-01T13:06:38.678Z,13.63
2019-04-01T13:09:26.907Z,13.47
2019-04-01T13:12:08.135Z,16.33
2019-04-01T13:14:49.051Z,13.90
2019-04-01T13:17:30.034Z,15.40
2019-04-01T13:20:11.369Z,14.70
2019-04-01T13:22:52.486Z,15.13
2019-04-01T13:25:33.808Z,15.80
2019-04-01T13:28:14.804Z,13.77
2019-04-01T13:30:56.263Z,14.40
2019-04-01T13:33:36.783Z,14.37
2019-04-01T13:36:18.535Z,15.17
2019-04-01T13:38:59.647Z,15.43
2019-04-01T13:41:42.651Z,13.90
2019-04-01T13:44:36.105Z,15.30
2019-04-01T13:47:05.618Z,13.80
2019-04-01T13:49:46.677Z,14.37
2019-04-01T13:52:27.823Z,14.57
2019-04-01T13:58:07.330Z,15.60
2019-04-01T14:00:47.926Z,14.80
2019-04-01T14:03:27.281Z,14.70
2019-04-01T14:06:15.531Z,14.00
2019-04-01T14:09:24.215Z,12.60
2019-04-01T14:12:05.405Z,13.20
2019-04-01T14:14:46.656Z,14.00
2019-04-01T14:17:27.558Z,14.07
2019-04-01T14:20:08.629Z,14.27
2019-04-01T14:22:49.403Z,14.40
2019-04-01T14:25:34.570Z,14.20
2019-04-01T14:28:13.936Z,12.03
2019-04-01T14:30:54.623Z,12.57
2019-04-01T14:33:35.119Z,15.37
2019-04-01T14:36:16.171Z,13.47
2019-04-01T14:38:56.649Z,12.10
2019-04-01T14:41:37.419Z,14.07
2019-04-01T14:44:18.507Z,13.90
2019-04-01T14:46:59.501Z,12.40
2019-04-01T14:49:40.932Z,13.80
2019-04-01T14:52:32.330Z,12.90
2019-04-01T14:55:04.684Z,12.23
2019-04-01T14:57:45.366Z,11.63
2019-04-01T15:00:26.647Z,13.00
2019-04-01T15:03:07.486Z,13.00
2019-04-01T15:05:49.154Z,13.97
2019-04-01T15:08:30.715Z,13.77
2019-04-01T15:11:12.153Z,12.47
2019-04-01T15:13:53.191Z,12.20
2019-04-01T15:16:34.081Z,13.07
2019-04-01T15:19:15.179Z,12.87
2019-04-01T15:21:55.722Z,13.00
2019-04-01T15:24:36.738Z,14.00
2019-04-01T15:27:18.101Z,12.70
2019-04-01T15:29:58.992Z,11.83
2019-04-01T15:32:40.059Z,12.13
2019-04-01T15:35:21.499Z,12.77
2019-04-01T15:38:02.991Z,11.90
2019-04-01T15:40:43.558Z,12.37
2019-04-01T15:43:24.851Z,12.10
2019-04-01T15:46:06.566Z,12.40
2019-04-01T15:48:50.897Z,12.10
2019-04-01T15:51:32.242Z,12.60
2019-04-01T15:54:13.656Z,11.90
2019-04-01T15:56:54.143Z,11.80
2019-04-01T15:59:23.665Z,12.57
2019-04-01T16:02:11.894Z,13.13
2019-04-01T16:05:00.178Z,22.37
2019-04-01T16:07:48.487Z,13.03
2019-04-01T16:10:36.775Z,11.47
2019-04-01T16:13:25.259Z,13.63
2019-04-01T16:16:14.695Z,12.53
2019-04-01T16:19:03.446Z,11.17
2019-04-01T16:21:52.163Z,11.23
2019-04-01T16:24:41.891Z,11.27
2019-04-01T16:27:30.130Z,10.93
2019-04-01T16:30:18.598Z,11.97
2019-04-01T16:33:06.826Z,12.40
2019-04-01T16:35:55.039Z,11.83
2019-04-01T16:38:43.275Z,11.20
2019-04-01T16:41:31.487Z,11.70
2019-04-01T16:44:19.794Z,10.83
2019-04-01T16:47:08.102Z,11.10
2019-04-01T16:49:56.549Z,11.73
2019-04-01T16:52:44.762Z,11.00
2019-04-01T16:55:32.971Z,11.60
2019-04-01T16:58:21.608Z,11.43
2019-04-01T17:01:02.711Z,11.30
2019-04-01T17:03:43.747Z,10.83
2019-04-01T17:06:24.214Z,10.47
2019-04-01T17:09:05.874Z,12.10
2019-04-01T17:11:47.018Z,12.17
2019-04-01T17:14:28.481Z,11.37
2019-04-01T17:17:09.778Z,10.70
2019-04-01T17:19:50.647Z,10.10
2019-04-01T17:22:32.173Z,10.30
2019-04-01T17:25:13.372Z,10.97
2019-04-01T17:27:54.289Z,10.73
2019-04-01T17:30:35.606Z,11.33
2019-04-01T17:33:16.678Z,10.90
2019-04-01T17:35:57.759Z,10.43
2019-04-01T17:38:38.643Z,10.07
2019-04-01T17:41:19.790Z,9.83
2019-04-01T17:44:00.299Z,9.80
2019-04-01T17:46:41.379Z,10.33
2019-04-01T17:49:22.007Z,10.70
2019-04-01T17:52:04.322Z,10.70
2019-04-01T17:54:45.387Z,10.93
2019-04-01T17:57:26.467Z,11.10
2019-04-01T18:00:07.431Z,10.50
2019-04-01T18:02:49.085Z,10.57
2019-04-01T18:05:41.355Z,10.53
2019-04-01T18:08:22.451Z,11.07
2019-04-01T18:11:03.497Z,10.50
2019-04-01T18:13:44.812Z,10.57
2019-04-01T18:16:25.407Z,10.67
2019-04-01T18:19:06.348Z,9.83
2019-04-01T18:21:48.766Z,9.70
2019-04-01T18:24:29.579Z,10.30
2019-04-01T18:27:10.115Z,9.97
2019-04-01T18:29:51.295Z,8.87
2019-04-01T18:32:32.095Z,9.30
2019-04-01T18:35:12.957Z,9.17
2019-04-01T18:37:54.393Z,9.90
2019-04-01T18:40:35.805Z,10.03
2019-04-01T18:43:16.943Z,12.23
2019-04-01T18:45:58.321Z,11.90
2019-04-01T18:48:39.119Z,11.20
2019-04-01T18:51:20.598Z,12.13
2019-04-01T18:54:01.664Z,12.93
2019-04-01T18:56:43.407Z,10.83
2019-04-01T18:59:24.749Z,10.17
2019-04-01T19:01:54.915Z,10.03
2019-04-01T19:05:03.688Z,10.67
2019-04-01T19:07:52.083Z,10.50
2019-04-01T19:10:41.603Z,10.00
2019-04-01T19:13:30.548Z,11.20
2019-04-01T19:16:19.428Z,9.30
2019-04-01T19:19:01.393Z,10.17
2019-04-01T19:21:42.461Z,8.90
2019-04-01T19:24:23.618Z,8.53
2019-04-01T19:27:04.335Z,10.27
2019-04-01T19:29:45.970Z,8.90
2019-04-01T19:32:27.526Z,10.13
2019-04-01T19:35:09.594Z,9.60
2019-04-01T19:37:50.972Z,10.87
2019-04-01T19:40:31.842Z,11.77
2019-04-01T19:43:13.306Z,11.00
2019-04-01T19:45:54.351Z,11.27
2019-04-01T19:48:35.117Z,10.17
2019-04-01T19:51:16.733Z,10.20
2019-04-01T19:53:57.403Z,10.73
2019-04-01T19:56:38.699Z,10.70
2019-04-01T19:59:19.191Z,12.53
2019-04-01T20:02:00.111Z,12.00
2019-04-01T20:04:40.903Z,9.90
2019-04-01T20:07:10.086Z,10.97
2019-04-01T20:09:39.197Z,10.13
2019-04-01T20:12:08.779Z,11.30
2019-04-01T20:14:37.967Z,9.73
2019-04-01T20:17:07.201Z,11.10
2019-04-01T20:19:36.411Z,12.17
2019-04-01T20:22:05.680Z,12.00
2019-04-01T20:24:35.148Z,10.93
2019-04-01T20:27:04.443Z,11.00
2019-04-01T20:29:33.944Z,11.03
2019-04-01T20:32:16.306Z,10.70
2019-04-01T20:34:34.110Z,10.57
2019-04-01T20:37:03.306Z,10.10
2019-04-01T20:39:32.804Z,8.67
2019-04-01T20:42:02.303Z,8.83
2019-04-01T20:44:31.782Z,9.87
2019-04-01T20:47:01.170Z,8.40
2019-04-01T20:49:30.301Z,9.70
2019-04-01T20:51:59.856Z,9.07
2019-04-01T20:54:29.298Z,10.03
2019-04-01T20:56:59.091Z,10.07
2019-04-01T20:59:28.546Z,9.47
2019-04-01T21:01:57.797Z,9.93
2019-04-01T21:04:27.178Z,11.50
2019-04-01T21:06:57.055Z,9.30
2019-04-01T21:09:26.521Z,12.13
2019-04-01T21:11:55.723Z,11.30
2019-04-01T21:14:24.911Z,10.50
2019-04-01T21:16:54.037Z,11.33
2019-04-01T21:19:23.230Z,10.40
2019-04-01T21:21:52.457Z,10.87
2019-04-01T21:24:21.574Z,11.83
2019-04-01T21:26:51.067Z,11.53
2019-04-01T21:29:21.024Z,10.47
2019-04-01T21:31:50.326Z,10.80
2019-04-01T21:34:19.533Z,13.13
2019-04-01T21:36:48.670Z,11.10
2019-04-01T21:39:17.801Z,11.37
2019-04-01T21:41:47.515Z,11.43
2019-04-01T21:44:18.177Z,11.33
2019-04-01T21:46:47.912Z,11.50
2019-04-01T21:49:17.135Z,10.90
2019-04-01T21:51:46.562Z,11.80
2019-04-01T21:54:16.051Z,10.87
2019-04-01T21:56:45.537Z,11.10
2019-04-01T21:59:15.005Z,11.47
2019-04-01T22:01:44.131Z,11.03
2019-04-01T22:04:13.430Z,11.73
2019-04-01T22:06:42.547Z,10.37
2019-04-01T22:09:12.163Z,12.17
2019-04-01T22:11:41.341Z,11.13
2019-04-01T22:14:10.646Z,11.43
2019-04-01T22:16:40.005Z,11.33
2019-04-01T22:19:09.247Z,12.27
2019-04-01T22:21:38.356Z,13.50
2019-04-01T22:24:07.751Z,12.13
2019-04-01T22:26:36.923Z,11.50
2019-04-01T22:29:06.127Z,12.20
2019-04-01T22:31:35.347Z,11.73
2019-04-01T22:34:04.970Z,13.20
2019-04-01T22:36:34.074Z,13.07
2019-04-01T22:39:04.939Z,12.10
2019-04-01T22:41:34.714Z,11.00
2019-04-01T22:44:05.206Z,11.40
2019-04-01T22:46:34.690Z,11.73
2019-04-01T22:49:04.146Z,12.50
2019-04-01T22:51:33.338Z,13.07
2019-04-01T22:54:02.790Z,13.43
2019-04-01T22:56:32.031Z,12.20
2019-04-01T22:59:01.225Z,13.27
2019-04-01T23:01:30.414Z,12.60
2019-04-01T23:03:59.559Z,14.10
2019-04-01T23:06:28.705Z,10.87
2019-04-01T23:08:57.855Z,10.53
2019-04-01T23:11:27.210Z,11.03
2019-04-01T23:13:56.632Z,10.30
2019-04-01T23:16:25.730Z,10.00
2019-04-01T23:18:55.335Z,9.90
2019-04-01T23:21:24.502Z,9.83
2019-04-01T23:23:53.899Z,10.67
2019-04-01T23:26:23.076Z,9.40
2019-04-01T23:28:52.310Z,8.70
2019-04-01T23:31:22.599Z,9.70
2019-04-01T23:33:51.804Z,9.13
2019-04-01T23:36:21.232Z,10.07
2019-04-01T23:38:50.706Z,10.70
2019-04-01T23:41:20.109Z,9.60
2019-04-01T23:43:49.291Z,10.30
2019-04-01T23:46:19.126Z,11.50
2019-04-01T23:48:48.590Z,10.47
2019-04-01T23:51:17.796Z,10.57
2019-04-01T23:53:47.227Z,9.77
2019-04-01T23:56:16.423Z,10.50
2019-04-01T23:58:45.794Z,10.30
